createdAt,value
2023-04-25T00:01:48.752Z,69.24
2023-04-25T00:04:15.675Z,69.49
2023-04-25T00:06:42.792Z,69.35
2023-04-25T00:09:11.215Z,69.72
2023-04-25T00:11:38.251Z,69.67
2023-04-25T00:14:05.695Z,69.95
2023-04-25T00:16:35.089Z,69.62
2023-04-25T00:19:03.469Z,69.67
2023-04-25T00:21:30.336Z,69.50
2023-04-25T00:23:57.111Z,69.60
2023-04-25T00:26:24.233Z,69.56
2023-04-25T00:28:51.363Z,69.16
2023-04-25T00:31:18.151Z,69.58
2023-04-25T00:33:44.981Z,69.42
2023-04-25T00:36:12.521Z,69.56
2023-04-25T00:38:39.647Z,69.30
2023-04-25T00:41:09.733Z,69.19
2023-04-25T00:43:38.040Z,69.28
2023-04-25T00:46:04.939Z,69.36
2023-04-25T00:48:31.797Z,69.17
2023-04-25T00:51:00.387Z,69.36
2023-04-25T00:53:29.094Z,69.45
2023-04-25T00:55:56.155Z,69.28
2023-04-25T00:58:23.551Z,68.96
2023-04-25T01:00:53.247Z,69.22
2023-04-25T01:03:23.785Z,69.20
2023-04-25T01:05:51.631Z,69.04
2023-04-25T01:08:18.412Z,68.88
2023-04-25T01:10:45.273Z,68.71
2023-04-25T01:13:12.126Z,69.04
2023-04-25T01:15:39.029Z,69.01
2023-04-25T01:18:07.532Z,69.12
2023-04-25T01:20:34.869Z,68.93
2023-04-25T01:23:03.557Z,69.24
2023-04-25T01:25:31.815Z,69.01
2023-04-25T01:28:01.308Z,68.81
2023-04-25T01:30:29.078Z,68.72
2023-04-25T01:32:57.663Z,68.96
2023-04-25T01:35:27.690Z,68.77
2023-04-25T01:37:54.776Z,68.88
2023-04-25T01:40:23.560Z,69.09
2023-04-25T01:42:51.999Z,69.19
2023-04-25T01:45:19.865Z,69.16
2023-04-25T01:47:50.340Z,68.82
2023-04-25T01:50:21.386Z,69.17
2023-04-25T01:52:49.254Z,69.16
2023-04-25T01:55:16.760Z,68.99
2023-04-25T01:57:53.531Z,68.86
2023-04-25T02:00:26.024Z,68.77
2023-04-25T02:02:54.698Z,68.81
2023-04-25T02:05:27.587Z,68.74
2023-04-25T02:07:54.371Z,68.55
2023-04-25T02:10:21.229Z,68.75
2023-04-25T02:13:06.391Z,68.76
2023-04-25T02:15:42.479Z,68.88
2023-04-25T02:18:19.692Z,68.73
2023-04-25T02:20:46.671Z,68.66
2023-04-25T02:23:13.570Z,68.63
2023-04-25T02:25:40.533Z,68.75
2023-04-25T02:28:07.407Z,68.77
2023-04-25T02:30:34.340Z,68.45
2023-04-25T02:33:01.172Z,68.62
2023-04-25T02:35:29.848Z,68.82
2023-04-25T02:37:56.620Z,68.58
2023-04-25T02:40:23.420Z,68.74
2023-04-25T02:42:50.220Z,68.71
2023-04-25T02:45:18.744Z,68.49
2023-04-25T02:47:45.822Z,68.67
2023-04-25T02:50:12.749Z,68.64
2023-04-25T02:52:40.961Z,68.71
2023-04-25T02:55:15.363Z,68.43
2023-04-25T02:57:43.005Z,68.49
2023-04-25T03:00:15.461Z,68.63
2023-04-25T03:02:42.402Z,68.44
2023-04-25T03:05:10.062Z,68.41
2023-04-25T03:07:37.843Z,68.35
2023-04-25T03:10:05.076Z,68.50
2023-04-25T03:12:33.748Z,68.61
2023-04-25T03:15:00.659Z,68.83
2023-04-25T03:17:27.773Z,68.80
2023-04-25T03:19:54.821Z,68.66
2023-04-25T03:22:22.103Z,68.86
2023-04-25T03:24:49.150Z,68.98
2023-04-25T03:27:16.677Z,69.18
2023-04-25T03:29:43.695Z,69.10
2023-04-25T03:32:11.107Z,69.43
2023-04-25T03:34:38.180Z,69.19
2023-04-25T03:37:05.126Z,69.18
2023-04-25T03:39:36.322Z,69.32
2023-04-25T03:42:04.219Z,69.53
2023-04-25T03:44:31.748Z,69.51
2023-04-25T03:47:00.290Z,69.55
2023-04-25T03:49:27.196Z,69.54
2023-04-25T03:51:58.554Z,69.51
2023-04-25T03:54:25.813Z,69.73
2023-04-25T03:57:00.412Z,69.84
2023-04-25T03:59:29.387Z,69.82
2023-04-25T04:01:56.374Z,69.75
2023-04-25T04:04:23.566Z,69.93
2023-04-25T04:06:50.847Z,70.13
2023-04-25T04:09:25.407Z,70.18
2023-04-25T04:11:52.752Z,70.04
2023-04-25T04:14:20.312Z,70.19
2023-04-25T04:16:48.455Z,70.16
2023-04-25T04:19:15.599Z,70.04
2023-04-25T04:21:47.798Z,70.35
2023-04-25T04:24:14.625Z,70.08
2023-04-25T04:26:56.305Z,70.12
2023-04-25T04:29:33.242Z,70.14
2023-04-25T04:32:06.102Z,70.10
2023-04-25T04:34:35.044Z,70.07
2023-04-25T04:37:02.581Z,70.09
2023-04-25T04:39:29.644Z,70.19
2023-04-25T04:42:04.656Z,70.46
2023-04-25T04:44:45.880Z,70.51
2023-04-25T04:47:45.038Z,70.69
2023-04-25T04:50:33.850Z,70.71
2023-04-25T04:53:25.742Z,70.78
2023-04-25T04:56:09.858Z,71.05
2023-04-25T04:58:53.758Z,71.14
2023-04-25T05:01:36.334Z,71.14
2023-04-25T05:04:20.497Z,71.06
2023-04-25T05:07:00.307Z,71.17
2023-04-25T05:09:43.239Z,71.30
2023-04-25T05:12:10.018Z,71.15
2023-04-25T05:14:55.484Z,71.13
2023-04-25T05:17:48.499Z,71.26
2023-04-25T05:20:25.534Z,71.31
2023-04-25T05:23:15.705Z,71.36
2023-04-25T05:25:55.049Z,71.08
2023-04-25T05:29:01.031Z,71.36
2023-04-25T05:31:46.846Z,71.32
2023-04-25T05:34:17.802Z,71.55
2023-04-25T05:37:06.080Z,71.59
2023-04-25T05:39:35.519Z,71.51
2023-04-25T05:42:15.298Z,71.48
2023-04-25T05:44:57.858Z,71.58
2023-04-25T05:47:32.520Z,71.85
2023-04-25T05:50:07.892Z,71.91
2023-04-25T05:52:51.549Z,71.84
2023-04-25T05:55:25.344Z,72.14
2023-04-25T05:57:52.151Z,72.01
2023-04-25T06:00:20.055Z,72.02
2023-04-25T06:02:49.735Z,72.00
2023-04-25T06:05:17.019Z,71.96
2023-04-25T06:07:45.866Z,72.17
2023-04-25T06:10:12.724Z,71.90
2023-04-25T06:12:39.800Z,72.09
2023-04-25T06:15:23.862Z,72.32
2023-04-25T06:17:54.036Z,72.21
2023-04-25T06:20:38.566Z,72.31
2023-04-25T06:23:05.964Z,72.26
2023-04-25T06:25:49.486Z,72.40
2023-04-25T06:28:16.294Z,72.42
2023-04-25T06:30:44.358Z,72.45
2023-04-25T06:33:14.879Z,72.26
2023-04-25T06:35:42.527Z,72.42
2023-04-25T06:38:12.175Z,72.67
2023-04-25T06:40:40.722Z,73.02
2023-04-25T06:43:09.204Z,72.83
2023-04-25T06:46:03.059Z,72.99
2023-04-25T06:48:32.361Z,73.34
2023-04-25T06:50:59.673Z,73.41
2023-04-25T06:53:27.168Z,73.22
2023-04-25T06:56:00.482Z,73.19
2023-04-25T06:58:36.305Z,73.17
2023-04-25T07:01:10.225Z,73.44
2023-04-25T07:03:38.906Z,73.34
2023-04-25T07:06:11.009Z,73.58
2023-04-25T07:08:37.897Z,73.65
2023-04-25T07:11:04.812Z,73.91
2023-04-25T07:13:31.703Z,73.88
2023-04-25T07:15:58.833Z,74.10
2023-04-25T07:18:27.511Z,74.52
2023-04-25T07:20:54.335Z,74.48
2023-04-25T07:23:21.499Z,73.89
2023-04-25T07:25:48.596Z,74.33
2023-04-25T07:28:20.376Z,74.15
2023-04-25T07:30:48.451Z,74.05
2023-04-25T07:33:15.300Z,74.01
2023-04-25T07:35:42.248Z,74.01
2023-04-25T07:38:11.493Z,73.88
2023-04-25T07:40:38.724Z,74.21
2023-04-25T07:43:08.397Z,74.09
2023-04-25T07:45:42.756Z,74.18
2023-04-25T07:48:10.112Z,74.25
2023-04-25T07:50:38.828Z,74.09
2023-04-25T07:53:05.696Z,74.11
2023-04-25T07:55:41.012Z,74.11
2023-04-25T07:58:22.464Z,74.07
2023-04-25T08:00:53.189Z,73.94
2023-04-25T08:03:43.054Z,74.11
2023-04-25T08:06:17.096Z,73.64
2023-04-25T08:08:53.171Z,73.83
2023-04-25T08:11:23.061Z,73.42
2023-04-25T08:13:50.500Z,73.34
2023-04-25T08:16:18.074Z,73.26
2023-04-25T08:18:44.931Z,73.00
2023-04-25T08:21:12.861Z,72.89
2023-04-25T08:23:40.054Z,72.19
2023-04-25T08:26:13.834Z,71.85
2023-04-25T08:28:42.919Z,71.45
2023-04-25T08:31:12.426Z,71.08
2023-04-25T08:33:48.930Z,70.07
2023-04-25T08:36:37.783Z,69.85
2023-04-25T08:39:15.141Z,69.47
2023-04-25T08:41:56.214Z,68.75
2023-04-25T08:44:23.440Z,67.59
2023-04-25T08:46:51.306Z,67.26
2023-04-25T08:49:28.614Z,66.17
2023-04-25T08:52:00.742Z,66.21
2023-04-25T08:54:34.653Z,65.64
2023-04-25T08:57:05.590Z,64.76
2023-04-25T08:59:33.481Z,64.06
2023-04-25T09:02:02.362Z,63.32
2023-04-25T09:04:33.967Z,62.32
2023-04-25T09:07:00.802Z,61.96
2023-04-25T09:09:28.222Z,61.47
2023-04-25T09:11:56.311Z,61.37
2023-04-25T09:14:27.093Z,61.00
2023-04-25T09:17:05.919Z,60.61
2023-04-25T09:19:53.283Z,60.39
2023-04-25T09:22:27.497Z,59.93
2023-04-25T09:24:54.301Z,59.76
2023-04-25T09:27:25.129Z,59.58
2023-04-25T09:30:18.154Z,59.62
2023-04-25T09:33:09.396Z,58.89
2023-04-25T09:35:43.438Z,58.63
2023-04-25T09:38:16.187Z,58.42
2023-04-25T09:40:53.012Z,58.39
2023-04-25T09:43:35.273Z,58.61
2023-04-25T09:46:02.332Z,58.43
2023-04-25T09:48:30.960Z,57.61
2023-04-25T09:51:11.171Z,57.79
2023-04-25T09:53:41.279Z,57.46
2023-04-25T09:56:21.134Z,57.24
2023-04-25T09:58:51.300Z,57.56
2023-04-25T10:01:18.370Z,56.91
2023-04-25T10:04:00.164Z,56.36
2023-04-25T10:06:42.541Z,56.24
2023-04-25T10:09:09.339Z,55.80
2023-04-25T10:11:37.527Z,54.42
2023-04-25T10:14:04.437Z,53.45
2023-04-25T10:16:31.595Z,53.41
2023-04-25T10:18:58.637Z,53.09
2023-04-25T10:21:25.643Z,53.11
2023-04-25T10:23:52.850Z,52.91
2023-04-25T10:26:20.154Z,52.70
2023-04-25T10:28:58.038Z,52.04
2023-04-25T10:31:25.007Z,51.61
2023-04-25T10:33:52.127Z,51.38
2023-04-25T10:36:20.566Z,50.27
2023-04-25T10:38:49.001Z,50.60
2023-04-25T10:41:15.874Z,50.59
2023-04-25T10:43:47.339Z,50.57
2023-04-25T10:46:23.858Z,50.42
2023-04-25T10:48:55.623Z,50.19
2023-04-25T10:51:30.780Z,49.98
2023-04-25T10:54:08.249Z,49.92
2023-04-25T10:56:40.998Z,49.73
2023-04-25T10:59:15.082Z,49.89
2023-04-25T11:01:44.240Z,49.88
2023-04-25T11:04:31.468Z,50.00
2023-04-25T11:07:10.886Z,50.27
2023-04-25T11:09:40.402Z,50.03
2023-04-25T11:12:09.393Z,50.42
2023-04-25T11:14:37.260Z,50.51
2023-04-25T11:17:04.444Z,50.17
2023-04-25T11:19:31.714Z,49.68
2023-04-25T11:21:59.769Z,49.87
2023-04-25T11:24:28.644Z,49.96
2023-04-25T11:26:55.518Z,49.73
2023-04-25T11:29:29.623Z,49.92
2023-04-25T11:31:59.359Z,49.75
2023-04-25T11:34:26.953Z,49.13
2023-04-25T11:36:54.507Z,49.28
2023-04-25T11:39:21.620Z,48.80
2023-04-25T11:41:48.868Z,48.20
2023-04-25T11:44:19.526Z,48.36
2023-04-25T11:46:46.947Z,48.17
2023-04-25T11:49:14.530Z,47.62
2023-04-25T11:51:42.341Z,47.81
2023-04-25T11:54:09.153Z,47.93
2023-04-25T11:56:35.949Z,48.07
2023-04-25T11:59:04.431Z,48.29
2023-04-25T12:01:36.357Z,48.20
2023-04-25T12:04:14.999Z,48.17
2023-04-25T12:06:43.418Z,47.93
2023-04-25T12:09:12.501Z,47.87
2023-04-25T12:11:49.936Z,47.47
2023-04-25T12:14:28.524Z,47.05
2023-04-25T12:17:09.191Z,46.47
2023-04-25T12:19:38.338Z,46.72
2023-04-25T12:22:21.446Z,46.68
2023-04-25T12:24:48.247Z,46.82
2023-04-25T12:27:20.337Z,47.56
2023-04-25T12:29:57.558Z,47.98
2023-04-25T12:32:27.719Z,48.02
2023-04-25T12:34:54.656Z,48.01
2023-04-25T12:37:22.120Z,48.18
2023-04-25T12:39:48.913Z,47.90
2023-04-25T12:42:15.699Z,47.86
2023-04-25T12:44:42.937Z,48.04
2023-04-25T12:47:09.968Z,47.91
2023-04-25T12:49:36.763Z,48.07
2023-04-25T12:52:03.592Z,47.98
2023-04-25T12:54:30.429Z,48.37
2023-04-25T12:56:57.577Z,48.23
2023-04-25T12:59:24.579Z,48.04
2023-04-25T13:01:51.388Z,47.86
2023-04-25T13:04:19.045Z,48.13
2023-04-25T13:06:46.076Z,47.97
2023-04-25T13:09:13.889Z,48.38
2023-04-25T13:11:42.000Z,48.90
2023-04-25T13:14:09.091Z,49.05
2023-04-25T13:16:36.132Z,48.78
2023-04-25T13:19:02.948Z,48.95
2023-04-25T13:21:32.123Z,49.26
2023-04-25T13:23:59.023Z,49.51
2023-04-25T13:26:26.970Z,49.39
2023-04-25T13:28:53.879Z,49.88
2023-04-25T13:31:20.827Z,49.85
2023-04-25T13:33:49.893Z,49.95
2023-04-25T13:36:17.343Z,50.44
2023-04-25T13:38:45.292Z,50.78
2023-04-25T13:41:16.798Z,50.81
2023-04-25T13:43:43.595Z,50.81
2023-04-25T13:46:24.773Z,51.22
2023-04-25T13:49:06.181Z,51.35
2023-04-25T13:51:38.692Z,51.62
2023-04-25T13:54:05.623Z,51.75
2023-04-25T13:56:32.433Z,51.67
2023-04-25T13:58:59.330Z,51.97
2023-04-25T14:01:26.221Z,51.98
2023-04-25T14:03:53.221Z,52.25
2023-04-25T14:06:24.031Z,52.34
2023-04-25T14:08:54.858Z,52.63
2023-04-25T14:11:21.639Z,52.83
2023-04-25T14:13:50.622Z,52.75
2023-04-25T14:16:17.695Z,52.60
2023-04-25T14:18:44.590Z,52.71
2023-04-25T14:21:11.962Z,52.55
2023-04-25T14:23:38.773Z,52.90
2023-04-25T14:26:06.491Z,52.79
2023-04-25T14:28:33.362Z,53.05
2023-04-25T14:31:00.277Z,52.79
2023-04-25T14:33:27.226Z,52.89
2023-04-25T14:35:54.227Z,53.40
2023-04-25T14:38:24.405Z,53.08
2023-04-25T14:40:51.320Z,53.31
2023-04-25T14:43:18.389Z,53.32
2023-04-25T14:45:46.006Z,53.30
2023-04-25T15:36:20.766Z,48.63
2023-04-25T15:38:47.730Z,48.59
2023-04-25T15:41:15.665Z,48.16
2023-04-25T15:43:47.495Z,47.89
2023-04-25T15:56:59.959Z,47.84
2023-04-25T15:59:26.759Z,48.04
2023-04-25T16:01:53.679Z,48.06
2023-04-25T16:04:20.856Z,48.45
2023-04-25T16:06:48.039Z,49.34
2023-04-25T16:12:16.998Z,49.56
2023-04-25T16:14:43.937Z,49.95
2023-04-25T16:17:10.846Z,49.59
2023-04-25T16:19:38.114Z,49.86
2023-04-25T16:22:04.991Z,50.29
2023-04-25T16:24:31.930Z,50.56
2023-04-25T16:26:59.361Z,50.52
2023-04-25T16:29:26.266Z,50.58
2023-04-25T16:31:53.219Z,50.76
2023-04-25T16:34:20.384Z,50.70
2023-04-25T16:36:47.290Z,50.73
2023-04-25T16:39:14.916Z,50.96
2023-04-25T16:41:41.889Z,50.68
2023-04-25T16:44:09.431Z,50.83
2023-04-25T16:46:36.723Z,50.83
2023-04-25T16:49:03.640Z,50.86
2023-04-25T16:51:30.895Z,50.57
2023-04-25T16:53:57.737Z,50.03
2023-04-25T16:56:24.964Z,49.56
2023-04-25T16:58:52.840Z,48.67
2023-04-25T17:01:21.418Z,48.10
2023-04-25T17:03:48.943Z,47.77
2023-04-25T17:06:19.282Z,47.44
2023-04-25T17:08:46.173Z,47.04
2023-04-25T17:11:13.146Z,47.14
2023-04-25T17:13:40.541Z,47.10
2023-04-25T17:16:07.751Z,47.21
2023-04-25T17:18:34.680Z,47.11
2023-04-25T17:21:02.545Z,47.61
2023-04-25T17:23:31.760Z,47.33
2023-04-25T17:25:59.360Z,48.30
2023-04-25T17:28:26.782Z,48.55
2023-04-25T17:30:54.096Z,49.00
2023-04-25T17:33:21.348Z,49.71
2023-04-25T17:35:48.294Z,50.16
2023-04-25T17:38:15.296Z,50.17
2023-04-25T17:40:42.500Z,50.96
2023-04-25T17:43:09.436Z,51.13
2023-04-25T17:45:36.586Z,51.49
2023-04-25T17:48:04.003Z,51.76
2023-04-25T17:50:31.886Z,51.98
2023-04-25T17:52:59.997Z,52.12
2023-04-25T17:55:27.638Z,52.33
2023-04-25T17:57:56.415Z,52.46
2023-04-25T18:00:23.413Z,52.50
2023-04-25T18:02:52.347Z,53.10
2023-04-25T18:05:20.203Z,53.27
2023-04-25T18:07:48.695Z,53.92
2023-04-25T18:10:15.597Z,54.08
2023-04-25T18:12:43.422Z,54.16
2023-04-25T18:15:10.953Z,55.09
2023-04-25T18:17:40.364Z,55.95
2023-04-25T18:20:12.079Z,56.32
2023-04-25T18:22:39.065Z,56.65
2023-04-25T18:25:08.719Z,57.17
2023-04-25T18:27:37.637Z,57.31
2023-04-25T18:30:06.867Z,57.65
2023-04-25T18:32:34.279Z,57.71
2023-04-25T18:35:01.457Z,58.06
2023-04-25T18:37:29.204Z,57.95
2023-04-25T18:39:56.152Z,57.69
2023-04-25T18:42:23.142Z,57.56
2023-04-25T18:44:51.407Z,57.52
2023-04-25T18:47:18.592Z,56.66
2023-04-25T18:49:46.076Z,56.15
2023-04-25T18:52:16.315Z,55.84
2023-04-25T18:54:43.335Z,55.29
2023-04-25T18:57:11.821Z,55.10
2023-04-25T18:59:38.743Z,54.12
2023-04-25T19:02:05.871Z,53.63
2023-04-25T19:04:33.314Z,53.27
2023-04-25T19:07:00.880Z,52.97
2023-04-25T19:09:27.761Z,52.53
2023-04-25T19:11:54.685Z,52.59
2023-04-25T19:14:21.573Z,52.67
2023-04-25T19:16:48.474Z,52.61
2023-04-25T19:19:15.896Z,52.59
2023-04-25T19:21:42.931Z,52.80
2023-04-25T19:24:11.440Z,52.38
2023-04-25T19:26:38.643Z,52.61
2023-04-25T19:29:08.478Z,52.83
2023-04-25T19:31:37.431Z,52.94
2023-04-25T19:34:05.529Z,52.83
2023-04-25T19:36:32.641Z,53.22
2023-04-25T19:39:04.289Z,52.83
2023-04-25T19:41:32.183Z,53.29
2023-04-25T19:44:01.117Z,53.51
2023-04-25T19:46:28.081Z,53.34
2023-04-25T19:48:55.711Z,53.79
2023-04-25T19:51:23.254Z,53.85
2023-04-25T19:53:50.362Z,53.75
2023-04-25T19:56:18.278Z,54.09
2023-04-25T19:58:45.268Z,54.40
2023-04-25T20:01:12.261Z,54.13
2023-04-25T20:03:39.228Z,54.23
2023-04-25T20:06:06.135Z,54.53
2023-04-25T20:08:33.037Z,54.44
2023-04-25T20:10:59.964Z,54.91
2023-04-25T20:13:26.864Z,54.99
2023-04-25T20:15:53.782Z,55.18
2023-04-25T20:18:20.758Z,55.38
2023-04-25T20:20:48.309Z,55.40
2023-04-25T20:23:15.557Z,55.84
2023-04-25T20:25:43.785Z,55.58
2023-04-25T20:28:10.626Z,56.05
2023-04-25T20:30:37.880Z,56.07
2023-04-25T20:33:07.594Z,56.48
2023-04-25T20:35:34.757Z,56.23
2023-04-25T20:38:01.996Z,56.48
2023-04-25T20:40:28.899Z,56.65
2023-04-25T20:42:56.411Z,56.29
2023-04-25T20:45:24.737Z,56.73
2023-04-25T20:47:51.673Z,56.56
2023-04-25T20:50:18.766Z,56.94
2023-04-25T20:52:45.624Z,56.90
2023-04-25T20:55:12.564Z,57.01
2023-04-25T20:57:39.491Z,57.07
2023-04-25T21:00:26.704Z,56.99
2023-04-25T21:02:53.885Z,57.13
2023-04-25T21:05:24.252Z,57.41
2023-04-25T21:07:52.829Z,57.48
2023-04-25T21:10:20.130Z,57.56
2023-04-25T21:12:50.177Z,57.81
2023-04-25T21:15:18.422Z,57.98
2023-04-25T21:17:47.645Z,57.92
2023-04-25T21:20:16.210Z,57.77
2023-04-25T21:22:50.999Z,58.10
2023-04-25T21:25:24.180Z,58.18
2023-04-25T21:27:52.675Z,58.25
2023-04-25T21:30:23.408Z,58.23
2023-04-25T21:32:51.715Z,58.11
2023-04-25T21:35:20.173Z,58.46
2023-04-25T21:37:47.536Z,58.51
2023-04-25T21:40:15.228Z,58.62
2023-04-25T21:42:46.131Z,58.85
2023-04-25T21:45:13.103Z,59.26
2023-04-25T21:47:40.014Z,59.13
2023-04-25T21:50:08.119Z,59.45
2023-04-25T21:52:38.726Z,59.19
2023-04-25T21:55:06.136Z,59.67
2023-04-25T21:57:33.653Z,59.63
2023-04-25T22:00:00.587Z,60.05
2023-04-25T22:02:28.093Z,60.03
2023-04-25T22:04:55.113Z,60.31
2023-04-25T22:07:21.947Z,60.22
2023-04-25T22:09:55.189Z,60.69
2023-04-25T22:12:23.741Z,60.48
2023-04-25T22:14:51.112Z,60.97
2023-04-25T22:17:19.137Z,61.25
2023-04-25T22:19:46.874Z,60.87
2023-04-25T22:22:13.727Z,61.15
2023-04-25T22:24:40.541Z,61.26
2023-04-25T22:27:07.499Z,61.60
2023-04-25T22:29:35.425Z,61.75
2023-04-25T22:32:02.823Z,61.84
2023-04-25T22:34:29.761Z,61.91
2023-04-25T22:36:56.673Z,62.28
2023-04-25T22:39:23.775Z,62.13
2023-04-25T22:41:50.645Z,62.03
2023-04-25T22:44:18.246Z,62.15
2023-04-25T22:46:45.287Z,62.20
2023-04-25T22:49:12.311Z,62.33
2023-04-25T22:51:39.210Z,62.51
2023-04-25T22:54:06.299Z,62.41
2023-04-25T22:56:33.179Z,62.60
2023-04-25T22:59:00.133Z,62.68
2023-04-25T23:01:28.370Z,63.23
2023-04-25T23:03:55.482Z,62.84
2023-04-25T23:06:23.090Z,63.25
2023-04-25T23:08:50.492Z,63.34
2023-04-25T23:11:17.548Z,63.46
2023-04-25T23:13:44.436Z,63.39
2023-04-25T23:16:11.536Z,63.46
2023-04-25T23:18:39.591Z,63.94
2023-04-25T23:21:10.631Z,64.02
2023-04-25T23:23:38.257Z,64.02
2023-04-25T23:26:09.975Z,64.13
2023-04-25T23:28:40.668Z,64.44
2023-04-25T23:31:09.556Z,64.79
2023-04-25T23:33:36.797Z,64.56
2023-04-25T23:36:04.054Z,64.92
2023-04-25T23:38:31.117Z,64.94
2023-04-25T23:40:57.980Z,64.94
2023-04-25T23:43:24.966Z,65.11
2023-04-25T23:45:51.901Z,65.09
2023-04-25T23:48:18.841Z,65.69
2023-04-25T23:50:45.765Z,65.97
2023-04-25T23:53:12.645Z,65.84
2023-04-25T23:55:39.797Z,66.29
2023-04-25T23:58:06.880Z,66.36
